Hovedside
METAR-TAF:

METAR-TAF

Lufthavner :

Koumac, Ny-Caledonia

breddegrad: 20-34S, lengdegrad: 164-17E, høyde over havet: 23 m

METAR: fraværende

Tid: 12:56 (01:56 UTC)

Varsel

Denne rapporten ble laget for 2 timer og 56 minutter siden, klokken 23:00 UTC
Varsel gyldig fra 20. klokken 00 UTC til 20. klokken 24 UTC
Vind 15 kt fra Sør-sørøst
Sikt 10 km eller mer
Få skyer i en høyde av 5000 ft
Blir
fra 20. klokken 06 UTC til 20. klokken 09 UTC
Vind 2 kt fra skiftende retning
Blir
fra 20. klokken 22 UTC til 20. klokken 24 UTC
Vind 15 kt fra Sør-sørøst

TAF: NWWK 192300Z 2000/2024 16015KT 9999 FEW050 BECMG 2006/2009 VRB02KT BECMG 2022/2024 15015KT

Værobservasjoner og værvarsel for over 4000 flyplasser (METAR- og TAF-rapporter).

Tilgjengelige stasjoner er representert av de røde og gule prikkene på kartet.

Hold musepekeren over prikken for å se navnet på stasjonen.

Klikk så for å se værobservasjoner og -varsler.

For å forandre kartet kan du klikke på den grønne knappen med svart kryss for å zoome inn, på den grønne knappen med strek for å zoome ut, eller på de grønne pilene for å se tilstøtende kart.


METAR-TAF: